createdAt,value
2017-06-14T00:00:10.222Z,0
2017-06-14T00:01:10.260Z,0
2017-06-14T00:02:10.299Z,0
2017-06-14T00:03:10.644Z,0
2017-06-14T00:04:10.377Z,0
2017-06-14T00:05:10.721Z,0
2017-06-14T00:06:10.452Z,0
2017-06-14T00:07:10.493Z,0
2017-06-14T00:08:10.528Z,0
2017-06-14T00:09:10.568Z,0
2017-06-14T00:10:10.607Z,0
2017-06-14T00:11:10.646Z,0
2017-06-14T00:12:10.825Z,0
2017-06-14T00:13:11.029Z,0
2017-06-14T00:14:10.766Z,0
2017-06-14T00:15:10.800Z,0
2017-06-14T00:16:10.834Z,0
2017-06-14T00:17:10.873Z,0
2017-06-14T00:18:10.916Z,0
2017-06-14T00:19:10.952Z,0
2017-06-14T00:20:11.299Z,0
2017-06-14T00:21:11.335Z,0
2017-06-14T00:22:11.374Z,0
2017-06-14T00:23:11.110Z,0
2017-06-14T00:24:11.144Z,0
2017-06-14T00:25:11.182Z,0
2017-06-14T00:26:11.220Z,0
2017-06-14T00:27:11.263Z,0
2017-06-14T00:28:11.604Z,0
2017-06-14T00:29:11.645Z,0
2017-06-14T00:30:11.605Z,0
2017-06-14T00:31:11.422Z,0
2017-06-14T00:32:11.462Z,0
2017-06-14T00:33:11.492Z,0
2017-06-14T00:34:11.530Z,0
2017-06-14T00:35:11.581Z,0
2017-06-14T00:36:11.686Z,0
2017-06-14T00:37:11.650Z,0
2017-06-14T00:38:11.696Z,0
2017-06-14T00:39:11.725Z,0
2017-06-14T00:40:11.762Z,0
2017-06-14T00:41:11.806Z,0
2017-06-14T00:42:12.144Z,0
2017-06-14T00:43:11.876Z,0
2017-06-14T00:44:11.913Z,0
2017-06-14T00:45:11.955Z,0
2017-06-14T00:46:11.993Z,0
2017-06-14T00:47:12.339Z,0
2017-06-14T00:48:12.063Z,0
2017-06-14T00:49:12.107Z,0
2017-06-14T00:50:12.368Z,0
2017-06-14T00:51:12.179Z,0
2017-06-14T00:52:12.220Z,0
2017-06-14T00:53:12.258Z,0
2017-06-14T00:54:12.296Z,0
2017-06-14T00:55:12.336Z,0
2017-06-14T00:56:12.684Z,0
2017-06-14T00:57:12.717Z,0
2017-06-14T00:58:12.760Z,0
2017-06-14T00:59:12.798Z,0
2017-06-14T01:00:12.836Z,0
2017-06-14T01:01:12.873Z,0
2017-06-14T01:02:12.661Z,0
2017-06-14T01:03:12.896Z,0
2017-06-14T01:04:12.936Z,0
2017-06-14T01:05:12.680Z,0
2017-06-14T01:06:12.716Z,0
2017-06-14T01:07:12.758Z,0
2017-06-14T01:08:12.788Z,0
2017-06-14T01:09:13.142Z,0
2017-06-14T01:10:12.869Z,0
2017-06-14T01:11:12.904Z,0
2017-06-14T01:12:13.246Z,0
2017-06-14T01:13:13.014Z,0
2017-06-14T01:14:13.329Z,0
2017-06-14T01:15:13.059Z,0
2017-06-14T01:16:13.097Z,0
2017-06-14T01:17:13.173Z,0
2017-06-14T01:18:13.179Z,0
2017-06-14T01:19:13.511Z,0
2017-06-14T01:20:13.248Z,0
2017-06-14T01:21:13.591Z,0
2017-06-14T01:22:13.328Z,0
2017-06-14T01:23:13.367Z,0
2017-06-14T01:24:13.402Z,0
2017-06-14T01:25:13.450Z,0
2017-06-14T01:26:13.474Z,0
2017-06-14T01:27:13.829Z,0
2017-06-14T01:28:13.561Z,0
2017-06-14T01:29:13.591Z,0
2017-06-14T01:30:13.930Z,0
2017-06-14T01:31:13.666Z,0
2017-06-14T01:32:14.012Z,0
2017-06-14T01:33:14.063Z,0
2017-06-14T01:34:13.784Z,0
2017-06-14T01:35:14.122Z,0
2017-06-14T01:36:14.159Z,0
2017-06-14T01:37:13.897Z,0
2017-06-14T01:38:13.934Z,0
2017-06-14T01:39:13.975Z,0
2017-06-14T01:40:14.007Z,0
2017-06-14T01:41:14.067Z,0
2017-06-14T01:42:14.084Z,0
2017-06-14T01:43:14.432Z,0
2017-06-14T01:44:14.173Z,0
2017-06-14T01:45:14.515Z,0
2017-06-14T01:46:14.240Z,0
2017-06-14T01:47:14.282Z,0
2017-06-14T01:48:14.314Z,0
2017-06-14T01:49:14.351Z,0
2017-06-14T01:50:14.697Z,0
2017-06-14T01:51:14.730Z,0
2017-06-14T01:52:14.813Z,0
2017-06-14T01:53:14.804Z,0
2017-06-14T01:54:14.550Z,0
2017-06-14T01:55:14.577Z,0
2017-06-14T01:56:14.622Z,0
2017-06-14T01:57:14.659Z,0
2017-06-14T01:58:14.695Z,0
2017-06-14T01:59:14.734Z,0
2017-06-14T02:00:14.770Z,0
2017-06-14T02:01:15.111Z,0
2017-06-14T02:02:14.845Z,0
2017-06-14T02:03:15.184Z,0
2017-06-14T02:04:14.919Z,0
2017-06-14T02:05:14.960Z,0
2017-06-14T02:06:14.997Z,0
2017-06-14T02:07:15.071Z,4
2017-06-14T02:08:15.080Z,4
2017-06-14T02:09:15.119Z,4
2017-06-14T02:10:15.158Z,0
2017-06-14T02:11:15.189Z,0
2017-06-14T02:12:15.526Z,4
2017-06-14T02:13:15.266Z,4
2017-06-14T02:14:15.915Z,4
2017-06-14T02:15:15.344Z,4
2017-06-14T02:16:15.377Z,4
2017-06-14T02:17:15.449Z,8
2017-06-14T02:18:15.450Z,4
2017-06-14T02:19:15.495Z,8
2017-06-14T02:20:15.529Z,8
2017-06-14T02:21:15.866Z,8
2017-06-14T02:22:15.601Z,8
2017-06-14T02:23:15.777Z,12
2017-06-14T02:24:15.986Z,12
2017-06-14T02:25:16.025Z,16
2017-06-14T02:26:15.758Z,20
2017-06-14T02:27:15.790Z,20
2017-06-14T02:28:15.833Z,20
2017-06-14T02:29:15.868Z,24
2017-06-14T02:30:15.937Z,28
2017-06-14T02:31:15.945Z,28
2017-06-14T02:32:15.981Z,32
2017-06-14T02:33:16.325Z,36
2017-06-14T02:34:16.682Z,44
2017-06-14T02:35:16.096Z,44
2017-06-14T02:36:16.449Z,52
2017-06-14T02:37:16.476Z,56
2017-06-14T02:38:16.514Z,64
2017-06-14T02:39:16.249Z,72
2017-06-14T02:40:16.316Z,76
2017-06-14T02:41:16.643Z,80
2017-06-14T02:42:16.384Z,88
2017-06-14T02:43:16.401Z,96
2017-06-14T02:44:16.738Z,100
2017-06-14T02:45:16.475Z,112
2017-06-14T02:46:16.507Z,116
2017-06-14T02:47:16.550Z,128
2017-06-14T02:48:16.587Z,140
2017-06-14T02:49:16.628Z,148
2017-06-14T02:50:16.659Z,160
2017-06-14T02:51:17.003Z,180
2017-06-14T02:52:17.053Z,196
2017-06-14T02:53:17.077Z,212
2017-06-14T02:54:16.811Z,236
2017-06-14T02:55:16.854Z,256
2017-06-14T02:56:17.194Z,268
2017-06-14T02:57:17.232Z,288
2017-06-14T02:58:16.964Z,308
2017-06-14T02:59:17.017Z,324
2017-06-14T03:00:17.343Z,348
2017-06-14T03:01:17.379Z,372
2017-06-14T03:02:17.719Z,396
2017-06-14T03:03:17.764Z,420
2017-06-14T03:04:17.197Z,452
2017-06-14T03:05:17.530Z,476
2017-06-14T03:06:17.265Z,508
2017-06-14T03:07:17.607Z,540
2017-06-14T03:08:17.340Z,572
2017-06-14T03:09:17.377Z,624
2017-06-14T03:10:17.418Z,664
2017-06-14T03:11:17.757Z,692
2017-06-14T03:12:17.496Z,732
2017-06-14T03:13:17.528Z,772
2017-06-14T03:14:17.572Z,804
2017-06-14T03:15:17.606Z,816
2017-06-14T03:16:17.642Z,864
2017-06-14T03:17:17.680Z,980
2017-06-14T03:18:17.724Z,1120
2017-06-14T03:19:17.823Z,1284
2017-06-14T03:20:17.823Z,1516
2017-06-14T03:21:17.829Z,1780
2017-06-14T03:22:17.873Z,1956
2017-06-14T03:23:18.220Z,2108
2017-06-14T03:24:17.946Z,2212
2017-06-14T03:25:17.985Z,2328
2017-06-14T03:26:18.022Z,2500
2017-06-14T03:27:18.373Z,2644
2017-06-14T03:28:18.100Z,2804
2017-06-14T03:29:18.141Z,2936
2017-06-14T03:30:18.179Z,3052
2017-06-14T03:31:18.533Z,3204
2017-06-14T03:32:18.572Z,3336
2017-06-14T03:33:18.298Z,3504
2017-06-14T03:34:18.331Z,3688
2017-06-14T03:35:18.694Z,3864
2017-06-14T03:36:18.410Z,4092
2017-06-14T03:37:18.450Z,4300
2017-06-14T03:38:18.810Z,4524
2017-06-14T03:39:18.526Z,4768
2017-06-14T03:40:18.570Z,4892
2017-06-14T03:41:18.604Z,5024
2017-06-14T03:42:18.947Z,5280
2017-06-14T03:43:19.298Z,5472
2017-06-14T03:44:19.032Z,5648
2017-06-14T03:45:18.776Z,5820
2017-06-14T03:46:18.805Z,5948
2017-06-14T03:47:19.154Z,6200
2017-06-14T03:48:19.186Z,6496
2017-06-14T03:49:18.932Z,6860
2017-06-14T03:50:18.974Z,7172
2017-06-14T03:51:19.014Z,7420
2017-06-14T03:52:19.094Z,7628
2017-06-14T03:53:19.393Z,7840
2017-06-14T03:54:19.437Z,8028
2017-06-14T03:55:19.491Z,8152
2017-06-14T03:56:19.217Z,8236
2017-06-14T03:57:19.680Z,8376
2017-06-14T03:58:19.298Z,8820
2017-06-14T03:59:19.645Z,9324
2017-06-14T04:00:19.684Z,9312
2017-06-14T04:01:19.425Z,9168
2017-06-14T04:02:19.771Z,9420
2017-06-14T04:03:19.512Z,9956
2017-06-14T04:04:19.549Z,10416
2017-06-14T04:05:19.623Z,10800
2017-06-14T04:06:19.655Z,10824
2017-06-14T04:07:19.681Z,10656
2017-06-14T04:08:20.028Z,10840
2017-06-14T04:09:20.069Z,10996
2017-06-14T04:10:19.807Z,10964
2017-06-14T04:11:20.159Z,11172
2017-06-14T04:12:19.897Z,11784
2017-06-14T04:13:20.248Z,12256
2017-06-14T04:14:19.988Z,12152
2017-06-14T04:15:20.330Z,12112
2017-06-14T04:16:20.075Z,12896
2017-06-14T04:17:20.119Z,13472
2017-06-14T04:18:20.162Z,13664
2017-06-14T04:19:20.203Z,14464
2017-06-14T04:20:20.250Z,15584
2017-06-14T04:21:20.294Z,15808
2017-06-14T04:22:20.650Z,15392
2017-06-14T04:23:20.390Z,15392
2017-06-14T04:24:20.736Z,15616
2017-06-14T04:25:20.472Z,15104
2017-06-14T04:26:20.519Z,14688
2017-06-14T04:27:21.166Z,15360
2017-06-14T04:28:21.227Z,17152
2017-06-14T04:29:20.653Z,18784
2017-06-14T04:30:21.020Z,19136
2017-06-14T04:31:21.048Z,18720
2017-06-14T04:32:20.795Z,17696
2017-06-14T04:33:21.164Z,16864
2017-06-14T04:34:21.510Z,16064
2017-06-14T04:35:20.929Z,15296
2017-06-14T04:36:20.971Z,12752
2017-06-14T04:37:21.020Z,9424
2017-06-14T04:38:21.065Z,7760
2017-06-14T04:39:21.410Z,8100
2017-06-14T04:40:21.156Z,11680
2017-06-14T04:41:21.200Z,15552
2017-06-14T04:42:21.550Z,15008
2017-06-14T04:43:21.603Z,13008
2017-06-14T04:44:21.639Z,10216
2017-06-14T04:45:21.384Z,9548
2017-06-14T04:46:21.425Z,13124
2017-06-14T04:47:21.779Z,15616
2017-06-14T04:48:21.521Z,16224
2017-06-14T04:49:21.564Z,15744
2017-06-14T04:50:21.609Z,12916
2017-06-14T04:51:21.646Z,8760
2017-06-14T04:52:22.002Z,6384
2017-06-14T04:53:21.745Z,6292
2017-06-14T04:54:22.091Z,7384
2017-06-14T04:55:22.137Z,7188
2017-06-14T04:56:22.187Z,6356
2017-06-14T04:57:21.940Z,6744
2017-06-14T04:58:21.970Z,7396
2017-06-14T04:59:22.321Z,8000
2017-06-14T05:00:22.059Z,8044
2017-06-14T05:01:24.527Z,8068
2017-06-14T05:02:22.366Z,9232
2017-06-14T05:03:22.183Z,12592
2017-06-14T05:04:22.234Z,16992
2017-06-14T05:05:22.573Z,14240
2017-06-14T05:06:22.401Z,10088
2017-06-14T05:07:22.361Z,7660
2017-06-14T05:08:22.430Z,6644
2017-06-14T05:09:22.464Z,6940
2017-06-14T05:10:22.484Z,7744
2017-06-14T05:11:22.572Z,9216
2017-06-14T05:12:22.576Z,11564
2017-06-14T05:13:23.220Z,10484
2017-06-14T05:14:22.964Z,8380
2017-06-14T05:15:22.709Z,6688
2017-06-14T05:16:23.361Z,6028
2017-06-14T05:17:23.096Z,6052
2017-06-14T05:18:23.448Z,6156
2017-06-14T05:19:22.884Z,6324
2017-06-14T05:20:23.063Z,6884
2017-06-14T05:21:22.960Z,8696
2017-06-14T05:22:23.002Z,8544
2017-06-14T05:23:23.349Z,7196
2017-06-14T05:24:23.086Z,6952
2017-06-14T05:25:23.428Z,6932
2017-06-14T05:26:23.167Z,7208
2017-06-14T05:27:23.208Z,7128
2017-06-14T05:28:23.857Z,6612
2017-06-14T05:29:23.296Z,6556
2017-06-14T05:30:23.342Z,6684
2017-06-14T05:31:23.379Z,6984
2017-06-14T05:32:23.725Z,7444
2017-06-14T05:33:23.459Z,8044
2017-06-14T05:34:23.895Z,8784
2017-06-14T05:35:23.850Z,9228
2017-06-14T05:36:23.897Z,9788
2017-06-14T05:37:23.626Z,14216
2017-06-14T05:38:23.672Z,19168
2017-06-14T05:39:23.709Z,25184
2017-06-14T05:40:23.750Z,28000
2017-06-14T05:41:24.199Z,28544
2017-06-14T05:42:23.836Z,29056
2017-06-14T05:43:24.178Z,29664
2017-06-14T05:44:23.916Z,30752
2017-06-14T05:45:23.966Z,31776
2017-06-14T05:46:24.008Z,32320
2017-06-14T05:47:24.356Z,33152
2017-06-14T05:48:24.098Z,32832
2017-06-14T05:49:24.443Z,31360
2017-06-14T05:50:24.185Z,32800
2017-06-14T05:51:24.533Z,34144
2017-06-14T05:52:24.284Z,36064
2017-06-14T05:53:24.325Z,39488
2017-06-14T05:54:24.668Z,41408
2017-06-14T05:55:24.419Z,41984
2017-06-14T05:56:24.768Z,42016
2017-06-14T05:57:24.524Z,40544
2017-06-14T05:58:24.579Z,38016
2017-06-14T05:59:24.913Z,37024
2017-06-14T06:00:25.017Z,36672
2017-06-14T06:01:24.753Z,37568
2017-06-14T06:02:24.808Z,39456
2017-06-14T06:03:25.161Z,40320
2017-06-14T06:04:24.904Z,41312
2017-06-14T06:05:24.952Z,42528
2017-06-14T06:06:25.003Z,43008
2017-06-14T06:07:25.053Z,44064
2017-06-14T06:08:25.106Z,43552
2017-06-14T06:09:25.474Z,41952
2017-06-14T06:10:25.514Z,40320
2017-06-14T06:11:25.574Z,39456
2017-06-14T06:12:25.620Z,40160
2017-06-14T06:13:25.673Z,43392
2017-06-14T06:14:25.423Z,46976
2017-06-14T06:15:25.470Z,48512
2017-06-14T06:16:25.527Z,50240
2017-06-14T06:17:25.576Z,54912
2017-06-14T06:18:25.626Z,55648
2017-06-14T06:19:25.999Z,55392
2017-06-14T06:20:25.735Z,53248
2017-06-14T06:21:25.801Z,49792
2017-06-14T06:22:25.843Z,48448
2017-06-14T06:23:26.203Z,48512
2017-06-14T06:24:25.953Z,52064
2017-06-14T06:25:26.016Z,56288
2017-06-14T06:26:26.364Z,59616
2017-06-14T06:27:26.116Z,61888
2017-06-14T06:28:26.170Z,60928
2017-06-14T06:29:26.223Z,61280
2017-06-14T06:30:26.598Z,60192
2017-06-14T06:31:26.338Z,58144
2017-06-14T06:32:26.720Z,58432
2017-06-14T06:33:27.174Z,56800
2017-06-14T06:34:26.841Z,57280
2017-06-14T06:35:26.903Z,58336
2017-06-14T06:36:26.670Z,58784
2017-06-14T06:37:26.978Z,59392
2017-06-14T06:38:26.721Z,60384
2017-06-14T06:39:26.805Z,61120
2017-06-14T06:40:26.951Z,60896
2017-06-14T06:41:26.887Z,62272
2017-06-14T06:42:26.945Z,19136
2017-06-14T06:43:28.589Z,62080
2017-06-14T06:44:27.477Z,66624
2017-06-14T06:45:27.194Z,65632
2017-06-14T06:46:27.785Z,60800
2017-06-14T06:47:27.270Z,59424
2017-06-14T06:48:27.589Z,57664
2017-06-14T06:49:27.644Z,56448
2017-06-14T06:50:27.777Z,56384
2017-06-14T06:51:27.448Z,56640
2017-06-14T06:52:27.556Z,50080
2017-06-14T06:53:27.561Z,56928
2017-06-14T06:54:27.847Z,57440
2017-06-14T06:55:27.673Z,54592
2017-06-14T06:56:28.033Z,54528
2017-06-14T06:57:27.784Z,55104
2017-06-14T06:58:28.155Z,55232
2017-06-14T06:59:28.204Z,56960
2017-06-14T07:00:27.957Z,58592
2017-06-14T07:01:28.120Z,61248
2017-06-14T07:02:28.061Z,61312
2017-06-14T07:03:28.120Z,61184
2017-06-14T07:04:28.485Z,59360
2017-06-14T07:05:28.546Z,55936
2017-06-14T07:06:28.289Z,55104
2017-06-14T07:07:28.648Z,55392
2017-06-14T07:08:28.398Z,58016
2017-06-14T07:09:28.770Z,63392
2017-06-14T07:10:28.510Z,69184
2017-06-14T07:11:28.566Z,74784
2017-06-14T07:12:28.622Z,78176
2017-06-14T07:13:28.677Z,88320
2017-06-14T07:14:28.738Z,88896
2017-06-14T07:15:28.794Z,84160
2017-06-14T07:16:28.847Z,81216
2017-06-14T07:17:29.239Z,81024
2017-06-14T07:18:29.401Z,75584
2017-06-14T07:19:29.035Z,74432
2017-06-14T07:20:29.074Z,75008
2017-06-14T07:21:29.442Z,17728
2017-06-14T07:22:29.194Z,66336
2017-06-14T07:23:29.558Z,63296
2017-06-14T07:24:29.307Z,63552
2017-06-14T07:25:29.356Z,15852
2017-06-14T07:26:29.419Z,59680
2017-06-14T07:27:29.471Z,65472
2017-06-14T07:28:29.845Z,68192
2017-06-14T07:29:29.585Z,71840
2017-06-14T07:30:29.641Z,74720
2017-06-14T07:31:30.180Z,72224
2017-06-14T07:32:29.940Z,22208
2017-06-14T07:33:30.124Z,18496
2017-06-14T07:34:30.055Z,86528
2017-06-14T07:35:29.926Z,17408
2017-06-14T07:36:29.981Z,13864
2017-06-14T07:37:30.037Z,12832
2017-06-14T07:38:30.096Z,21536
2017-06-14T07:39:30.454Z,10888
2017-06-14T07:40:30.201Z,8464
2017-06-14T07:41:30.251Z,7388
2017-06-14T07:42:30.303Z,6708
2017-06-14T07:43:30.354Z,6180
2017-06-14T07:44:30.410Z,5864
2017-06-14T07:45:30.470Z,5804
2017-06-14T07:46:30.559Z,6084
2017-06-14T07:47:30.561Z,5760
2017-06-14T07:48:30.610Z,5928
2017-06-14T07:49:30.659Z,6156
2017-06-14T07:50:30.710Z,7396
2017-06-14T07:51:31.073Z,8324
2017-06-14T07:52:31.108Z,20800
2017-06-14T07:53:30.861Z,92704
2017-06-14T07:54:31.525Z,89536
2017-06-14T07:55:30.951Z,87968
2017-06-14T07:56:31.002Z,88608
2017-06-14T07:57:31.358Z,59968
2017-06-14T07:58:31.098Z,61856
2017-06-14T07:59:31.309Z,85568
2017-06-14T08:00:31.201Z,64224
2017-06-14T08:01:31.251Z,95232
2017-06-14T08:02:31.328Z,17536
2017-06-14T08:03:31.355Z,9556
2017-06-14T08:04:31.405Z,8312
2017-06-14T08:05:31.459Z,9284
2017-06-14T08:06:31.508Z,12640
2017-06-14T08:07:31.559Z,8612
2017-06-14T08:08:31.912Z,9384
2017-06-14T08:09:31.670Z,11540
2017-06-14T08:10:31.703Z,14856
2017-06-14T08:11:32.071Z,81440
2017-06-14T08:12:31.807Z,10928
2017-06-14T08:13:31.853Z,77568
2017-06-14T08:14:31.896Z,76672
2017-06-14T08:15:32.266Z,84544
2017-06-14T08:16:32.305Z,94144
2017-06-14T08:17:32.047Z,101792
2017-06-14T08:18:32.122Z,105056
2017-06-14T08:19:32.145Z,108800
2017-06-14T08:20:32.199Z,25280
2017-06-14T08:21:32.316Z,88608
2017-06-14T08:22:32.345Z,26016
2017-06-14T08:23:32.761Z,86304
2017-06-14T08:24:32.403Z,101632
2017-06-14T08:25:32.547Z,23520
2017-06-14T08:26:32.827Z,17920
2017-06-14T08:27:32.818Z,26112
2017-06-14T08:28:32.613Z,104768
2017-06-14T08:29:32.664Z,29600
2017-06-14T08:30:32.713Z,82144
2017-06-14T08:31:32.762Z,27488
2017-06-14T08:32:32.845Z,74400
2017-06-14T08:33:32.870Z,75936
2017-06-14T08:34:32.940Z,84512
2017-06-14T08:35:33.069Z,90816
2017-06-14T08:36:33.099Z,94400
2017-06-14T08:37:33.691Z,90080
2017-06-14T08:38:33.139Z,87008
2017-06-14T08:39:33.494Z,46464
2017-06-14T08:40:33.317Z,17792
2017-06-14T08:41:33.305Z,17120
2017-06-14T08:42:33.630Z,67744
2017-06-14T08:43:33.419Z,91520
2017-06-14T08:44:33.759Z,40288
2017-06-14T08:45:33.544Z,94112
2017-06-14T08:46:33.574Z,92320
2017-06-14T08:47:33.924Z,84960
2017-06-14T08:48:33.665Z,84864
2017-06-14T08:49:33.724Z,67008
2017-06-14T08:50:34.079Z,90688
2017-06-14T08:51:33.832Z,95104
2017-06-14T08:52:34.500Z,100480
2017-06-14T08:53:33.939Z,28096
2017-06-14T08:54:34.102Z,42336
2017-06-14T08:55:34.389Z,18368
2017-06-14T08:56:34.103Z,14572
2017-06-14T08:57:34.174Z,71808
2017-06-14T08:58:34.535Z,96160
2017-06-14T08:59:34.576Z,110176
2017-06-14T09:00:34.332Z,113600
2017-06-14T09:01:34.376Z,110080
2017-06-14T09:02:34.742Z,113184
2017-06-14T09:03:34.807Z,114272
2017-06-14T09:04:36.612Z,111008
2017-06-14T09:05:34.631Z,108576
2017-06-14T09:06:35.034Z,111456
2017-06-14T09:07:35.190Z,116384
2017-06-14T09:08:35.062Z,60096
2017-06-14T09:09:35.002Z,23456
2017-06-14T09:10:35.203Z,14616
2017-06-14T09:11:35.316Z,12484
2017-06-14T09:12:35.151Z,10776
2017-06-14T09:13:35.461Z,10528
2017-06-14T09:14:35.404Z,11684
2017-06-14T09:15:35.221Z,17536
2017-06-14T09:16:35.290Z,102656
2017-06-14T09:17:35.309Z,16220
2017-06-14T09:18:35.329Z,14852
2017-06-14T09:19:35.372Z,15584
2017-06-14T09:20:35.576Z,14964
2017-06-14T09:21:35.655Z,13780
2017-06-14T09:22:35.532Z,59968
2017-06-14T09:23:35.594Z,100704
2017-06-14T09:24:35.687Z,102144
2017-06-14T09:25:36.322Z,100864
2017-06-14T09:26:36.434Z,111040
2017-06-14T09:27:36.111Z,85440
2017-06-14T09:28:35.895Z,13904
2017-06-14T09:29:35.890Z,16228
2017-06-14T09:30:35.956Z,20256
2017-06-14T09:31:36.100Z,18240
2017-06-14T09:32:36.629Z,13160
2017-06-14T09:33:36.155Z,13512
2017-06-14T09:34:36.556Z,59040
2017-06-14T09:35:36.560Z,21248
2017-06-14T09:36:36.306Z,118976
2017-06-14T09:37:36.345Z,130048
2017-06-14T09:38:36.709Z,91360
2017-06-14T09:39:36.440Z,106240
2017-06-14T09:40:36.458Z,98144
2017-06-14T09:41:36.505Z,96704
2017-06-14T09:42:36.586Z,97664
2017-06-14T09:43:36.934Z,95872
2017-06-14T09:44:37.418Z,16960
2017-06-14T09:45:38.474Z,23872
2017-06-14T09:46:38.224Z,113568
2017-06-14T09:47:36.939Z,112512
2017-06-14T09:48:37.501Z,106336
2017-06-14T09:49:37.054Z,101856
2017-06-14T09:50:37.397Z,103360
2017-06-14T09:51:37.242Z,105120
2017-06-14T09:52:37.441Z,57504
2017-06-14T09:53:37.650Z,12708
2017-06-14T09:54:37.524Z,14552
2017-06-14T09:55:37.383Z,24224
2017-06-14T09:56:37.736Z,109632
2017-06-14T09:57:37.688Z,107232
2017-06-14T09:58:37.784Z,105440
2017-06-14T09:59:37.593Z,106720
2017-06-14T10:00:38.005Z,108960
2017-06-14T10:01:37.587Z,113376
2017-06-14T10:02:37.644Z,115712
2017-06-14T10:03:38.038Z,116768
2017-06-14T10:04:37.762Z,114912
2017-06-14T10:05:37.840Z,110016
2017-06-14T10:06:37.872Z,104256
2017-06-14T10:07:37.963Z,98816
2017-06-14T10:08:37.986Z,96736
2017-06-14T10:09:38.038Z,99584
2017-06-14T10:10:38.098Z,37856
2017-06-14T10:11:38.487Z,84160
2017-06-14T10:12:38.213Z,108992
2017-06-14T10:13:38.598Z,17216
2017-06-14T10:14:38.946Z,99520
2017-06-14T10:15:38.381Z,112416
2017-06-14T10:16:38.750Z,84800
2017-06-14T10:17:38.500Z,20096
2017-06-14T10:18:38.855Z,14576
2017-06-14T10:19:38.642Z,117856
2017-06-14T10:20:38.663Z,112576
2017-06-14T10:21:39.054Z,114816
2017-06-14T10:22:39.477Z,114720
2017-06-14T10:23:39.201Z,111936
2017-06-14T10:24:38.898Z,106720
2017-06-14T10:25:38.946Z,54400
2017-06-14T10:26:39.001Z,22752
2017-06-14T10:27:39.057Z,18752
2017-06-14T10:28:39.107Z,107232
2017-06-14T10:29:39.186Z,114880
2017-06-14T10:30:39.261Z,114016
2017-06-14T10:31:39.277Z,112256
2017-06-14T10:32:39.335Z,110080
2017-06-14T10:33:39.394Z,108672
2017-06-14T10:34:39.754Z,112352
2017-06-14T10:35:39.813Z,111872
2017-06-14T10:36:39.873Z,114816
2017-06-14T10:37:39.945Z,116704
2017-06-14T10:38:39.980Z,117280
2017-06-14T10:39:39.737Z,75360
2017-06-14T10:40:40.099Z,21120
2017-06-14T10:41:39.845Z,113120
2017-06-14T10:42:40.208Z,115872
2017-06-14T10:43:39.960Z,117440
2017-06-14T10:44:40.024Z,80576
2017-06-14T10:45:40.181Z,115584
2017-06-14T10:46:40.131Z,112928
2017-06-14T10:47:40.189Z,106208
2017-06-14T10:48:40.553Z,80064
2017-06-14T10:49:40.301Z,9552
2017-06-14T10:50:40.665Z,33504
2017-06-14T10:51:40.418Z,105312
2017-06-14T10:52:40.476Z,108128
2017-06-14T10:53:40.531Z,68800
2017-06-14T10:54:40.589Z,110272
2017-06-14T10:55:40.951Z,109088
2017-06-14T10:56:40.696Z,45856
2017-06-14T10:57:41.079Z,11464
2017-06-14T10:58:41.148Z,64000
2017-06-14T10:59:41.478Z,31744
2017-06-14T11:00:41.228Z,12044
2017-06-14T11:01:41.277Z,13456
2017-06-14T11:02:41.027Z,11372
2017-06-14T11:03:41.075Z,9224
2017-06-14T11:04:41.746Z,8248
2017-06-14T11:05:41.501Z,9700
2017-06-14T11:06:41.242Z,9644
2017-06-14T11:07:41.906Z,13928
2017-06-14T11:08:41.645Z,10340
2017-06-14T11:09:41.396Z,9060
2017-06-14T11:10:41.441Z,7904
2017-06-14T11:11:41.493Z,7052
2017-06-14T11:12:41.852Z,6404
2017-06-14T11:13:41.909Z,6260
2017-06-14T11:14:41.642Z,6144
2017-06-14T11:15:41.698Z,6000
2017-06-14T11:16:41.738Z,5964
2017-06-14T11:17:41.804Z,6088
2017-06-14T11:18:41.892Z,7536
2017-06-14T11:19:41.891Z,7436
2017-06-14T11:20:41.939Z,7684
2017-06-14T11:21:42.296Z,7200
2017-06-14T11:22:42.032Z,6496
2017-06-14T11:23:42.101Z,5788
2017-06-14T11:24:42.139Z,5484
2017-06-14T11:25:42.221Z,5272
2017-06-14T11:26:42.222Z,5032
2017-06-14T11:27:42.270Z,4820
2017-06-14T11:28:42.416Z,4692
2017-06-14T11:29:42.396Z,4624
2017-06-14T11:30:42.417Z,4632
2017-06-14T11:31:42.763Z,4360
2017-06-14T11:32:42.822Z,4668
2017-06-14T11:33:42.857Z,4712
2017-06-14T11:34:42.604Z,4756
2017-06-14T11:35:42.949Z,4888
2017-06-14T11:36:42.737Z,5008
2017-06-14T11:37:43.363Z,5176
2017-06-14T11:38:43.090Z,4812
2017-06-14T11:39:42.829Z,4704
2017-06-14T11:40:42.891Z,4680
2017-06-14T11:41:43.239Z,4632
2017-06-14T11:42:42.965Z,4668
2017-06-14T11:43:43.015Z,4620
2017-06-14T11:44:43.364Z,4532
2017-06-14T11:45:43.103Z,4520
2017-06-14T11:46:43.149Z,4552
2017-06-14T11:47:43.507Z,4536
2017-06-14T11:48:43.245Z,4580
2017-06-14T11:49:43.285Z,5200
2017-06-14T11:50:43.335Z,5328
2017-06-14T11:51:43.376Z,4752
2017-06-14T11:52:43.727Z,4460
2017-06-14T11:53:43.497Z,4332
2017-06-14T11:54:43.819Z,4272
2017-06-14T11:55:43.561Z,4284
2017-06-14T11:56:43.599Z,4324
2017-06-14T11:57:43.647Z,4264
2017-06-14T11:58:44.000Z,4164
2017-06-14T11:59:44.049Z,4184
2017-06-14T12:00:44.089Z,4140
2017-06-14T12:01:44.140Z,4200
2017-06-14T12:02:44.178Z,4140
2017-06-14T12:03:43.918Z,4096
2017-06-14T12:04:44.385Z,4012
2017-06-14T12:05:44.099Z,3984
2017-06-14T12:06:44.357Z,3992
2017-06-14T12:07:44.424Z,4032
2017-06-14T12:08:44.445Z,4000
2017-06-14T12:09:44.516Z,3928
2017-06-14T12:10:44.535Z,3884
2017-06-14T12:11:44.275Z,3880
2017-06-14T12:12:44.321Z,3856
2017-06-14T12:13:44.366Z,3844
2017-06-14T12:14:44.406Z,3856
2017-06-14T12:15:44.473Z,3872
2017-06-14T12:16:44.517Z,3880
2017-06-14T12:17:44.541Z,3896
2017-06-14T12:18:44.614Z,3908
2017-06-14T12:19:44.634Z,3920
2017-06-14T12:20:44.678Z,3904
2017-06-14T12:21:44.725Z,3872
2017-06-14T12:22:45.079Z,3812
2017-06-14T12:23:45.121Z,3796
2017-06-14T12:24:44.860Z,3820
2017-06-14T12:25:45.530Z,3712
2017-06-14T12:26:45.251Z,3624
2017-06-14T12:27:44.990Z,3572
2017-06-14T12:28:45.034Z,3532
2017-06-14T12:29:45.075Z,3500
2017-06-14T12:30:45.120Z,3480
2017-06-14T12:31:45.173Z,3472
2017-06-14T12:32:45.213Z,3492
2017-06-14T12:33:45.250Z,3508
2017-06-14T12:34:45.300Z,3496
2017-06-14T12:35:45.344Z,3464
2017-06-14T12:36:45.386Z,3448
2017-06-14T12:37:45.466Z,3412
2017-06-14T12:38:45.475Z,3412
2017-06-14T12:39:45.523Z,3436
2017-06-14T12:40:45.597Z,3420
2017-06-14T12:41:45.610Z,3392
2017-06-14T12:42:45.676Z,3372
2017-06-14T12:43:46.008Z,3364
2017-06-14T12:44:45.742Z,3364
2017-06-14T12:45:46.409Z,3356
2017-06-14T12:46:45.828Z,3336
2017-06-14T12:47:46.181Z,3328
2017-06-14T12:48:46.232Z,3352
2017-06-14T12:49:46.270Z,3364
2017-06-14T12:50:52.179Z,3364
2017-06-14T12:51:46.501Z,3356
2017-06-14T12:52:46.093Z,3360
2017-06-14T12:53:46.509Z,3392
2017-06-14T12:54:46.488Z,3488
2017-06-14T12:55:46.229Z,3364
2017-06-14T12:56:46.275Z,3296
2017-06-14T12:57:46.623Z,3256
2017-06-14T12:58:46.695Z,3244
2017-06-14T12:59:46.407Z,3232
2017-06-14T13:00:46.757Z,3228
2017-06-14T13:01:46.491Z,3224
2017-06-14T13:02:48.711Z,3192
2017-06-14T13:03:46.993Z,3168
2017-06-14T13:04:46.641Z,3168
2017-06-14T13:05:46.709Z,3180
2017-06-14T13:06:46.714Z,3172
2017-06-14T13:07:47.379Z,3136
2017-06-14T13:08:46.805Z,3084
2017-06-14T13:09:46.846Z,3060
2017-06-14T13:10:46.888Z,3040
2017-06-14T13:11:46.934Z,3020
2017-06-14T13:12:46.980Z,3004
2017-06-14T13:13:47.021Z,3004
2017-06-14T13:14:47.070Z,3012
2017-06-14T13:15:47.422Z,2992
2017-06-14T13:16:47.152Z,2960
2017-06-14T13:17:47.216Z,2952
2017-06-14T13:18:47.248Z,2960
2017-06-14T13:19:47.292Z,2964
2017-06-14T13:20:47.332Z,2956
2017-06-14T13:21:47.376Z,2944